Time;durP1;ratioP1;P1;durP2;ratioP2;P2;SDS_P1;SDS_P2;PMS_P1;PMS_P2;Temp;Humidity;BMP_temperature;BMP_pressure;BME280_temperature;BME280_humidity;BME280_pressure;Samples;Min_cycle;Max_cycle;Signal;HPM_P1;HPM_P2
2022/05/17 00:01:22;;;;;;;41.08;26.25;;;14.00;99.90;;;14.85;100.00;164445.41;4978594;28;20490;-82
2022/05/17 00:03:48;;;;;;;41.65;28.60;;;13.90;99.90;;;14.87;100.00;164449.41;4977545;28;20190;-85
2022/05/17 00:06:14;;;;;;;42.90;28.52;;;13.90;99.90;;;14.85;100.00;164445.41;4979167;28;20034;-82
2022/05/17 00:08:41;;;;;;;41.97;28.20;;;13.90;99.90;;;14.87;100.00;164449.41;4991014;28;20491;-85
2022/05/17 00:11:10;;;;;;;51.28;30.38;;;13.90;99.90;;;14.86;100.00;164448.13;4966307;28;20531;-83
2022/05/17 00:13:36;;;;;;;38.83;24.70;;;13.90;99.90;;;14.84;100.00;164442.72;4956666;28;20404;-80
2022/05/17 00:16:04;;;;;;;47.38;30.75;;;13.90;99.90;;;14.80;100.00;164432.03;4973276;28;20027;-84
2022/05/17 00:18:31;;;;;;;46.15;30.17;;;13.90;99.90;;;14.85;100.00;164444.06;4955466;28;20146;-83
2022/05/17 00:20:57;;;;;;;51.03;31.50;;;13.90;99.90;;;14.86;100.00;164446.75;4955207;28;20213;-83
2022/05/17 00:23:23;;;;;;;39.03;27.58;;;13.90;99.90;;;14.84;100.00;164442.72;4955870;28;20539;-83
2022/05/17 00:25:49;;;;;;;50.88;33.03;;;13.90;99.90;;;14.83;100.00;164440.09;4954393;29;20034;-87
2022/05/17 00:28:19;;;;;;;45.28;30.27;;;13.90;99.90;;;14.82;100.00;164436.03;4954838;28;20035;-84
2022/05/17 00:30:49;;;;;;;43.38;28.90;;;13.90;99.90;;;14.83;100.00;164438.72;4954541;28;20398;-82
2022/05/17 00:33:15;;;;;;;51.60;32.95;;;13.80;99.90;;;14.78;100.00;164428.00;4954721;28;20114;-84
2022/05/17 00:35:43;;;;;;;46.83;31.38;;;13.80;99.90;;;14.75;100.00;164419.97;4954021;28;20042;-85
2022/05/17 00:38:09;;;;;;;46.50;31.63;;;13.80;99.90;;;14.72;100.00;164411.94;4955241;28;20019;-84
2022/05/17 00:40:35;;;;;;;55.58;33.88;;;13.80;99.90;;;14.71;100.00;164409.25;4955265;28;20043;-82
2022/05/17 00:43:01;;;;;;;51.67;32.63;;;13.80;99.90;;;14.71;100.00;164409.25;4953987;28;20083;-81
2022/05/17 00:45:28;;;;;;;47.25;31.27;;;13.80;99.90;;;14.71;100.00;164409.25;4955064;28;20027;-83
2022/05/17 00:48:08;;;;;;;48.47;29.70;;;13.80;99.90;;;14.69;100.00;164403.91;4955229;28;20035;-84
2022/05/17 00:50:46;;;;;;;47.65;30.88;;;13.80;99.90;;;14.69;100.00;164403.91;4955525;28;20027;-86
2022/05/17 00:53:21;;;;;;;52.40;32.92;;;13.80;99.90;;;14.72;100.00;164410.59;4954448;28;20109;-83
2022/05/17 00:55:57;;;;;;;55.95;34.17;;;13.80;99.90;;;14.74;100.00;164415.94;4955779;28;20099;-85
2022/05/17 00:58:47;;;;;;;58.28;34.67;;;13.80;99.90;;;14.76;100.00;164421.31;4954124;29;20035;-83
2022/05/17 01:01:30;;;;;;;53.67;31.88;;;13.80;99.90;;;14.73;100.00;164413.28;4955837;28;20558;-84
2022/05/17 01:04:00;;;;;;;53.10;32.85;;;13.80;99.90;;;14.73;100.00;164414.63;4970836;28;20038;-83
2022/05/17 01:06:47;;;;;;;51.40;30.73;;;13.80;99.90;;;14.69;100.00;164403.91;4956173;28;20031;-82
2022/05/17 01:09:14;;;;;;;47.20;31.35;;;13.80;99.90;;;14.66;100.00;164394.53;4953863;28;20147;-85
2022/05/17 01:11:41;;;;;;;64.63;34.47;;;13.70;99.90;;;14.61;100.00;164381.13;4973066;28;20046;-82
2022/05/17 01:16:55;;;;;;;53.67;33.35;;;13.70;99.90;;;14.61;100.00;164382.47;4975327;28;20038;-83
2022/05/17 01:19:22;;;;;;;71.50;40.92;;;13.70;99.90;;;14.62;100.00;164383.81;4991744;28;20027;-85
2022/05/17 01:21:48;;;;;;;63.08;38.35;;;13.70;99.90;;;14.65;100.00;164393.19;4994017;28;20114;-84
2022/05/17 01:24:14;;;;;;;62.72;35.72;;;13.70;99.90;;;14.67;100.00;164397.22;4979291;28;20058;-83
2022/05/17 01:26:47;;;;;;;65.10;36.78;;;13.80;99.90;;;14.63;100.00;164386.50;4979708;28;20034;-84
2022/05/17 01:29:13;;;;;;;58.08;33.78;;;13.70;99.90;;;14.61;100.00;164382.47;4994095;28;20037;-84
2022/05/17 01:31:40;;;;;;;52.55;31.40;;;13.70;99.90;;;14.58;100.00;164373.06;4994187;28;20483;-85
2022/05/17 01:34:11;;;;;;;45.42;28.52;;;13.60;99.90;;;14.51;100.00;164355.66;4978677;28;20130;-86
2022/05/17 01:36:40;;;;;;;46.63;29.45;;;13.60;99.90;;;14.45;100.00;164338.31;4979566;28;20058;-88
2022/05/17 01:39:07;;;;;;;46.97;29.98;;;13.50;99.90;;;14.39;100.00;164323.53;4978877;28;20030;-86
2022/05/17 01:41:33;;;;;;;51.33;30.80;;;13.50;99.90;;;14.34;100.00;164310.19;4980345;28;20027;-87
2022/05/17 01:44:00;;;;;;;55.53;32.95;;;13.40;99.90;;;14.32;100.00;164304.75;4980422;28;20035;-86
2022/05/17 01:46:27;;;;;;;52.95;31.88;;;13.40;99.90;;;14.32;100.00;164303.44;4977544;28;20034;-83
2022/05/17 01:48:53;;;;;;;48.10;29.98;;;13.40;99.90;;;14.31;100.00;164302.09;4978412;28;20030;-85
2022/05/17 01:51:21;;;;;;;46.08;29.85;;;13.40;99.90;;;14.29;100.00;164295.41;4978464;28;20042;-85
2022/05/17 01:53:47;;;;;;;41.92;26.88;;;13.30;99.90;;;14.23;100.00;164282.00;4981596;28;20200;-85
2022/05/17 01:56:15;;;;;;;41.42;26.98;;;13.30;99.90;;;14.18;100.00;164268.63;4997712;28;20082;-82
2022/05/17 01:58:41;;;;;;;42.95;27.55;;;13.20;99.90;;;14.14;100.00;164256.56;4978789;28;20391;-85
2022/05/17 02:01:10;;;;;;;44.30;27.60;;;13.20;99.90;;;14.08;100.00;164241.84;4980038;28;20038;-84
2022/05/17 02:03:37;;;;;;;45.65;29.58;;;13.20;99.90;;;14.05;100.00;164232.47;4978397;28;20097;-85
2022/05/17 02:06:03;;;;;;;46.45;29.67;;;13.10;99.90;;;14.02;100.00;164225.78;4980522;28;20498;-84
2022/05/17 02:08:30;;;;;;;50.25;31.40;;;13.10;99.90;;;14.01;100.00;164223.09;4991233;28;20050;-83
2022/05/17 02:10:56;;;;;;;43.63;27.65;;;13.10;99.90;;;13.98;100.00;164215.06;4968009;28;20043;-83
2022/05/17 02:13:22;;;;;;;40.78;25.30;;;13.10;99.90;;;13.93;100.00;164200.38;4956770;28;20032;-85
2022/05/17 02:15:48;;;;;;;39.33;25.20;;;13.00;99.90;;;13.86;100.00;164181.63;4957454;28;20035;-84
2022/05/17 02:18:14;;;;;;;34.15;24.15;;;13.00;99.90;;;13.81;100.00;164169.56;4956075;28;20027;-84
2022/05/17 02:20:40;;;;;;;56.80;28.15;;;12.90;99.90;;;13.80;100.00;164166.91;4956506;28;20058;-83
2022/05/17 02:23:07;;;;;;;38.97;25.52;;;12.90;99.90;;;13.81;100.00;164168.19;4973139;28;20031;-82
2022/05/17 02:25:35;;;;;;;45.30;27.10;;;12.80;99.90;;;13.79;100.00;164164.22;4957559;28;20123;-83
2022/05/17 02:28:03;;;;;;;42.17;25.92;;;12.90;99.90;;;13.80;100.00;164166.91;4956935;28;20042;-82
2022/05/17 02:30:31;;;;;;;53.78;30.33;;;12.90;99.90;;;13.79;100.00;164164.22;4956703;28;20082;-83
2022/05/17 02:32:57;;;;;;;39.97;24.92;;;12.90;99.90;;;13.79;100.00;164164.22;4972723;28;20122;-84
2022/05/17 02:35:23;;;;;;;49.05;29.35;;;12.90;99.90;;;13.82;100.00;164172.25;4957387;28;20047;-85
2022/05/17 02:37:49;;;;;;;53.53;28.75;;;12.90;99.90;;;13.86;100.00;164181.63;4956062;28;20114;-85
2022/05/17 02:40:15;;;;;;;41.40;26.05;;;12.90;99.90;;;13.84;100.00;164177.59;4955656;28;20086;-83
2022/05/17 02:42:41;;;;;;;39.53;25.58;;;12.90;99.90;;;13.80;100.00;164165.56;4955952;28;20447;-84
2022/05/17 02:45:08;;;;;;;43.78;25.33;;;12.90;99.90;;;13.76;100.00;164156.19;4972180;28;20147;-85
2022/05/17 02:47:37;;;;;;;45.25;26.90;;;12.80;99.90;;;13.73;100.00;164149.50;4957349;28;20495;-83
2022/05/17 02:50:04;;;;;;;42.25;26.05;;;12.90;99.90;;;13.69;100.00;164138.78;4972811;28;20035;-80
2022/05/17 02:52:30;;;;;;;48.97;27.85;;;12.80;99.90;;;13.73;100.00;164148.16;4957534;28;20059;-82
2022/05/17 02:54:56;;;;;;;38.10;24.15;;;12.80;99.90;;;13.70;100.00;164140.13;4955993;28;20035;-85
2022/05/17 02:57:22;;;;;;;44.55;27.90;;;12.70;99.90;;;13.67;100.00;164132.09;4955886;28;20258;-85
2022/05/17 02:59:47;;;;;;;45.15;26.88;;;12.80;99.90;;;13.68;100.00;164134.75;4956013;28;20031;-84
2022/05/17 03:02:13;;;;;;;42.13;26.67;;;12.70;99.90;;;13.68;100.00;164134.75;4956285;28;20502;-84
2022/05/17 03:04:41;;;;;;;35.42;21.60;;;12.70;99.90;;;13.65;100.00;164126.72;4958671;28;20122;-86
2022/05/17 03:07:07;;;;;;;39.80;23.83;;;12.70;99.90;;;13.59;100.00;164112.03;4958674;28;20042;-83
2022/05/17 03:09:33;;;;;;;40.50;23.70;;;12.70;99.90;;;13.57;100.00;164105.34;4959290;28;20403;-84
2022/05/17 03:11:59;;;;;;;33.80;20.90;;;12.60;99.90;;;13.51;100.00;164089.28;5008013;22;20134;-86
2022/05/17 03:14:24;;;;;;;41.25;25.27;;;12.60;99.90;;;13.50;100.00;164087.94;4973598;28;20027;-87
2022/05/17 03:16:50;;;;;;;39.13;23.58;;;12.60;99.90;;;13.50;100.00;164086.59;4958967;29;20034;-86
2022/05/17 03:19:17;;;;;;;44.35;26.90;;;12.50;99.90;;;13.51;100.00;164089.28;4975293;28;20039;-89
2022/05/17 03:21:48;;;;;;;45.42;26.00;;;12.60;99.90;;;13.50;100.00;164086.59;4958643;29;20497;-85
2022/05/17 03:24:14;;;;;;;41.80;25.60;;;12.60;99.90;;;13.52;100.00;164091.94;4959083;29;20146;-86
2022/05/17 03:26:41;;;;;;;48.75;27.95;;;12.60;99.90;;;13.48;100.00;164081.25;4958777;29;20034;-87
2022/05/17 03:29:07;;;;;;;47.20;27.23;;;12.60;99.90;;;13.55;100.00;164100.00;4957867;29;20041;-85
2022/05/17 03:31:37;;;;;;;48.10;28.65;;;12.70;99.90;;;13.58;100.00;164108.03;4956091;29;20035;-86
2022/05/17 03:34:03;;;;;;;47.78;27.75;;;12.70;99.90;;;13.61;100.00;164117.34;4955682;29;20027;-86
2022/05/17 03:36:29;;;;;;;48.35;27.95;;;12.80;99.90;;;13.67;100.00;164133.44;4955922;29;20031;-88
2022/05/17 03:38:55;;;;;;;46.15;26.27;;;12.80;99.90;;;13.68;100.00;164134.75;4957365;29;20350;-89
2022/05/17 03:41:21;;;;;;;46.47;27.42;;;12.80;99.90;;;13.76;100.00;164154.84;4958529;29;20122;-86
2022/05/17 03:43:47;;;;;;;42.88;26.27;;;12.80;99.90;;;13.76;100.00;164154.84;4958308;28;20042;-87
2022/05/17 03:46:13;;;;;;;46.83;26.98;;;12.80;99.90;;;13.74;100.00;164152.16;4958252;29;20031;-88
2022/05/17 03:48:39;;;;;;;56.13;27.38;;;12.80;99.90;;;13.73;100.00;164148.16;4958374;29;20054;-86
2022/05/17 03:51:18;;;;;;;43.75;24.90;;;12.80;99.90;;;13.77;100.00;164158.88;4959304;29;20561;-88
2022/05/17 03:53:49;;;;;;;40.65;24.95;;;12.90;99.90;;;13.87;100.00;164184.31;4958829;29;20037;-87
2022/05/17 03:56:16;;;;;;;46.38;25.10;;;12.90;99.90;;;13.89;100.00;164189.66;4959823;29;20023;-88
2022/05/17 03:58:44;;;;;;;46.85;24.23;;;12.90;99.90;;;13.91;100.00;164194.97;4959488;29;20039;-87
2022/05/17 04:01:13;;;;;;;34.55;22.95;;;13.00;99.90;;;13.98;100.00;164213.72;4958733;29;20038;-88
2022/05/17 04:03:41;;;;;;;44.70;23.73;;;13.10;99.90;;;14.03;100.00;164228.44;4958390;29;20069;-86
2022/05/17 04:06:07;;;;;;;41.08;23.17;;;13.00;99.90;;;14.07;100.00;164239.16;4958424;29;20553;-89
2022/05/17 04:08:32;;;;;;;38.13;22.85;;;13.10;99.90;;;14.13;100.00;164255.22;4958911;29;20027;-87
2022/05/17 04:10:58;;;;;;;34.45;21.42;;;13.10;99.90;;;14.13;100.00;164255.22;4958212;29;20027;-85
2022/05/17 04:13:29;;;;;;;37.08;23.00;;;13.20;99.90;;;14.05;100.00;164233.81;4958879;29;20039;-87
2022/05/17 04:16:01;;;;;;;36.70;21.40;;;13.20;99.90;;;14.17;100.00;164265.94;4960513;28;20058;-86
2022/05/17 04:18:28;;;;;;;30.95;21.98;;;13.20;99.90;;;14.25;100.00;164286.03;4958424;29;20490;-88
2022/05/17 04:21:04;;;;;;;33.40;21.20;;;13.20;99.90;;;14.35;100.00;164311.53;4959575;29;20070;-87
2022/05/17 04:23:31;;;;;;;;;;;13.30;99.90;;;14.39;100.00;164322.19;4962994;29;20031;-89
2022/05/17 04:25:58;;;;;;;29.52;19.95;;;13.40;99.90;;;14.45;100.00;164339.59;4968380;29;20413;-88
2022/05/17 04:28:25;;;;;;;32.45;20.42;;;13.40;99.90;;;14.48;100.00;164346.34;4959855;29;20039;-87
2022/05/17 04:30:51;;;;;;;29.33;19.50;;;13.40;99.90;;;14.50;100.00;164351.69;4958954;29;20038;-83
2022/05/17 04:33:19;;;;;;;32.10;19.92;;;13.50;99.90;;;14.52;100.00;164358.38;4959009;29;20027;-82
2022/05/17 04:35:46;;;;;;;30.23;18.67;;;13.50;99.90;;;14.51;100.00;164354.38;4959199;29;20067;-84
2022/05/17 04:38:12;;;;;;;27.25;17.48;;;13.40;99.90;;;14.51;100.00;164354.38;4961154;29;20031;-86
2022/05/17 04:40:38;;;;;;;27.63;17.58;;;13.40;99.90;;;14.43;100.00;164332.91;4959963;29;20052;-86
2022/05/17 04:43:05;;;;;;;29.33;18.35;;;13.40;99.90;;;14.38;100.00;164320.91;4960737;29;20030;-88
2022/05/17 04:45:30;;;;;;;30.27;18.42;;;13.40;99.90;;;14.51;100.00;164354.38;4960874;29;20035;-88
2022/05/17 04:47:56;;;;;;;30.33;18.23;;;13.40;99.90;;;14.55;100.00;164365.03;4976586;28;20057;-87
2022/05/17 04:50:22;;;;;;;27.05;17.55;;;13.50;99.90;;;14.60;100.00;164378.47;4960058;28;20039;-87
2022/05/17 04:52:49;;;;;;;26.83;17.52;;;13.50;99.90;;;14.64;100.00;164390.50;4960882;28;20089;-87
2022/05/17 04:55:20;;;;;;;27.90;18.25;;;13.60;99.90;;;14.70;100.00;164406.56;4962290;28;20099;-88
2022/05/17 04:57:47;;;;;;;26.17;17.27;;;13.60;99.90;;;14.72;100.00;164410.59;4963317;29;20031;-84
2022/05/17 05:00:24;;;;;;;28.65;17.42;;;13.70;99.90;;;14.88;100.00;164452.09;4962137;29;20034;-89
2022/05/17 05:02:51;;;;;;;28.00;15.75;;;13.70;99.90;;;14.90;100.00;164458.78;4962575;29;20114;-89
2022/05/17 05:05:18;;;;;;;25.65;16.48;;;13.80;99.90;;;14.97;100.00;164477.56;4962143;29;20079;-85
2022/05/17 05:07:45;;;;;;;26.33;16.25;;;13.80;99.90;;;15.07;100.00;164503.00;4962135;29;20039;-87
2022/05/17 05:10:13;;;;;;;20.95;15.18;;;13.90;99.90;;;15.12;100.00;164517.72;4963866;28;20541;-86
2022/05/17 05:12:40;;;;;;;22.83;14.40;;;14.00;99.90;;;15.22;100.00;164544.50;4965566;28;20050;-87
2022/05/17 05:15:09;;;;;;;19.80;14.50;;;14.10;99.90;;;15.25;100.00;164552.56;4966279;29;20126;-90
2022/05/17 05:17:37;;;;;;;23.33;14.73;;;14.10;99.90;;;15.40;100.00;164591.44;4965801;29;20023;-88
2022/05/17 05:20:08;;;;;;;19.58;13.82;;;14.30;99.90;;;15.64;100.00;164654.41;4965974;29;20027;-86
2022/05/17 05:22:34;;;;;;;22.95;14.05;;;14.40;99.90;;;15.72;100.00;164677.22;4965501;28;20023;-86
2022/05/17 05:25:01;;;;;;;23.02;13.13;;;14.60;99.90;;;15.78;100.00;164693.31;4963395;29;20095;-84
2022/05/17 05:27:36;;;;;;;17.75;12.18;;;14.70;99.90;;;16.02;100.00;164754.97;4964918;29;20415;-86
2022/05/17 05:30:07;;;;;;;21.95;13.25;;;14.80;99.90;;;16.15;100.00;164789.81;4966159;29;20023;-87
2022/05/17 05:32:33;;;;;;;18.58;12.13;;;14.90;99.90;;;16.24;100.00;164815.28;4966410;28;20119;-86
2022/05/17 05:34:59;;;;;;;16.33;12.70;;;15.00;99.90;;;16.42;100.00;164862.19;4965712;29;20090;-86
2022/05/17 05:37:25;;;;;;;20.50;11.63;;;15.20;99.90;;;16.46;100.00;164871.56;4965460;29;20047;-86
2022/05/17 05:39:51;;;;;;;16.92;11.80;;;15.20;99.90;;;16.61;100.00;164911.81;4965715;29;20028;-84
2022/05/17 05:42:17;;;;;;;20.02;11.68;;;15.40;99.90;;;16.73;100.00;164945.34;4964371;28;20058;-87
2022/05/17 05:44:42;;;;;;;18.90;11.07;;;15.50;99.90;;;16.79;100.00;164961.44;4963951;29;20126;-87
2022/05/17 05:47:08;;;;;;;18.45;10.82;;;15.70;99.90;;;16.85;100.00;164977.56;4964977;29;20065;-86
2022/05/17 05:49:34;;;;;;;15.75;9.85;;;15.70;99.90;;;16.88;100.00;164982.91;4964787;29;20036;-86
2022/05/17 05:52:00;;;;;;;14.57;10.10;;;15.80;99.90;;;16.91;100.00;164990.94;4967063;28;20039;-87
2022/05/17 05:54:26;;;;;;;13.55;10.05;;;15.80;99.90;;;17.04;100.00;165027.16;4966208;29;20028;-84
2022/05/17 05:56:52;;;;;;;14.48;8.80;;;15.90;99.90;;;17.05;100.00;165029.81;4965971;28;20050;-88
2022/05/17 05:59:18;;;;;;;13.88;10.02;;;15.90;99.90;;;17.20;100.00;165070.09;4965069;29;20027;-87
2022/05/17 06:01:44;;;;;;;16.80;10.05;;;16.00;99.90;;;17.25;100.00;165082.13;4964231;28;20027;-88
2022/05/17 06:04:10;;;;;;;17.75;10.77;;;16.10;99.90;;;17.25;100.00;165083.47;4963089;29;20418;-86
2022/05/17 06:06:36;;;;;;;15.15;9.43;;;16.20;99.90;;;17.37;100.00;165114.31;4962392;28;20055;-86
2022/05/17 06:09:02;;;;;;;19.08;10.40;;;16.20;99.90;;;17.49;100.00;165146.53;4964008;29;20038;-84
2022/05/17 06:11:28;;;;;;;14.82;10.05;;;16.40;99.90;;;17.62;100.00;165180.13;4946195;29;20039;-86
2022/05/17 06:13:54;;;;;;;14.48;9.65;;;16.50;99.90;;;17.76;100.00;165219.00;4943016;28;20036;-86
2022/05/17 06:16:21;;;;;;;16.75;10.18;;;16.60;99.90;;;17.94;100.00;165266.00;4942785;28;20032;-86
2022/05/17 06:18:47;;;;;;;14.23;9.88;;;16.70;99.90;;;18.14;100.00;165319.63;4958167;28;20028;-86
2022/05/17 06:21:13;;;;;;;15.23;8.98;;;16.90;99.90;;;18.25;100.00;165347.84;4958197;28;20031;-85
2022/05/17 06:23:39;;;;;;;12.38;8.98;;;17.10;99.90;;;18.51;100.00;165417.69;4942549;29;20035;-85
2022/05/17 06:26:06;;;;;;;13.90;8.40;;;17.20;99.90;;;18.71;100.00;165471.41;4943395;28;20337;-86
2022/05/17 06:28:32;;;;;;;17.60;9.25;;;17.40;99.90;;;19.32;100.00;165632.50;4943646;28;20035;-85
2022/05/17 06:30:58;;;;;;;13.00;7.53;;;18.00;99.90;;;19.87;100.00;165778.97;4942269;28;20031;-87
2022/05/17 06:33:27;;;;;;;12.57;7.15;;;18.50;99.90;;;20.22;100.00;165873.00;4947400;28;20031;-88
2022/05/17 06:35:54;;;;;;;10.82;6.60;;;18.80;99.90;;;20.59;100.00;165971.13;4949082;29;20031;-85
2022/05/17 06:38:20;;;;;;;9.90;5.88;;;19.10;99.90;;;20.64;100.00;165984.59;4944811;28;20122;-87
2022/05/17 06:40:46;;;;;;;9.48;6.03;;;19.30;99.90;;;20.78;100.00;166020.84;4947998;29;20024;-87
2022/05/17 06:43:12;;;;;;;11.38;5.63;;;19.40;99.90;;;20.92;100.00;166059.84;4953850;28;20032;-86
2022/05/17 06:45:38;;;;;;;12.80;5.43;;;19.50;99.90;;;20.89;100.00;166051.78;4944695;28;20036;-87
2022/05/17 06:48:05;;;;;;;12.45;5.28;;;19.50;99.90;;;20.82;100.00;166032.97;4943025;28;20031;-86
2022/05/17 06:50:33;;;;;;;13.75;5.63;;;19.50;99.90;;;20.75;100.00;166014.13;4944687;29;20055;-86
2022/05/17 06:53:00;;;;;;;10.40;5.57;;;19.50;99.90;;;20.91;100.00;166055.78;4945288;29;20036;-86
2022/05/17 06:55:26;;;;;;;7.47;4.75;;;19.60;99.90;;;20.99;100.00;166077.31;4942409;28;20039;-84
2022/05/17 06:57:52;;;;;;;11.75;5.25;;;19.70;99.90;;;21.10;100.00;166106.91;4958275;28;20020;-85
2022/05/17 07:00:19;;;;;;;9.15;4.90;;;19.80;99.90;;;21.21;100.00;166136.53;4941917;28;20391;-85
2022/05/17 07:02:46;;;;;;;8.07;4.25;;;19.80;99.90;;;21.08;99.42;166101.50;4941801;29;20039;-88
2022/05/17 07:05:12;;;;;;;8.63;4.68;;;19.80;99.90;;;21.01;98.04;166084.03;4943845;29;20028;-84
2022/05/17 07:07:38;;;;;;;9.82;4.30;;;19.80;99.90;;;21.21;95.63;166136.53;4958526;28;20095;-87
2022/05/17 07:13:07;;;;;;;11.70;4.70;;;20.10;99.90;;;21.95;92.31;166334.25;4962188;28;20049;-86
2022/05/17 07:15:47;;;;;;;8.98;4.00;;;20.50;99.90;;;22.43;86.06;166462.03;4961907;28;20032;-85
2022/05/17 07:18:19;;;;;;;7.43;3.67;;;21.00;99.90;;;23.02;85.74;166618.16;4962274;28;20027;-87
2022/05/17 07:20:47;;;;;;;9.88;3.70;;;21.40;99.90;;;23.35;81.50;166706.97;4964619;28;20114;-87
2022/05/17 07:23:15;;;;;;;9.73;3.45;;;21.70;99.90;;;23.50;75.91;166746.06;4962439;28;20114;-86
2022/05/17 07:25:45;;;;;;;7.28;3.08;;;22.00;99.90;;;23.78;76.87;166821.44;4962108;29;20031;-87
2022/05/17 07:28:19;;;;;;;9.93;2.75;;;22.10;99.90;;;23.91;73.91;166856.47;4963367;28;20031;-85
2022/05/17 07:30:47;;;;;;;9.35;3.25;;;22.30;99.90;;;24.57;76.47;167031.53;4962323;29;20446;-87
2022/05/17 07:33:14;;;;;;;13.70;3.20;;;22.80;99.90;;;24.95;71.65;167133.94;4962345;28;20023;-87
2022/05/17 07:35:40;;;;;;;5.50;2.65;;;23.10;99.90;;;24.94;68.34;167131.28;4962629;29;20031;-84
2022/05/17 07:38:08;;;;;;;8.40;2.90;;;23.10;99.90;;;24.60;71.11;167039.63;4961708;29;20051;-86
2022/05/17 07:40:34;;;;;;;11.15;3.28;;;22.90;99.90;;;24.28;69.21;166954.78;4963328;28;20023;-87
2022/05/17 07:43:00;;;;;;;6.93;2.95;;;22.70;99.90;;;24.36;71.28;166976.34;4963258;28;20063;-84
2022/05/17 07:45:27;;;;;;;13.52;3.70;;;22.70;99.90;;;24.20;70.08;166931.91;4962440;29;20050;-87
2022/05/17 07:47:53;;;;;;;10.45;3.63;;;22.70;99.90;;;24.74;71.61;167077.34;4962520;29;20054;-84
2022/05/17 07:50:21;;;;;;;6.00;3.03;;;23.00;99.90;;;24.94;67.74;167129.94;4961267;28;20027;-85
2022/05/17 07:52:47;;;;;;;12.05;3.35;;;23.00;99.90;;;25.00;67.60;167147.44;4962664;28;20166;-83
2022/05/17 07:55:14;;;;;;;9.98;3.25;;;23.20;99.90;;;24.97;66.85;167138.00;4959293;28;20115;-84
2022/05/17 07:57:40;;;;;;;8.95;3.30;;;23.10;99.90;;;24.89;67.62;167116.44;4958835;28;20054;-82
2022/05/17 08:00:08;;;;;;;9.75;3.05;;;23.10;99.90;;;24.61;67.77;167043.69;4957843;29;20031;-84
2022/05/17 08:02:35;;;;;;;10.90;3.45;;;22.90;99.90;;;24.25;69.36;166945.34;4960098;28;20019;-87
2022/05/17 08:05:02;;;;;;;11.07;3.90;;;22.60;99.90;;;23.55;73.45;166760.88;4958159;29;20093;-85
2022/05/17 08:07:28;;;;;;;10.15;3.25;;;22.20;99.90;;;23.16;72.99;166654.47;4958713;29;20038;-83
2022/05/17 08:09:54;;;;;;;8.55;2.80;;;21.70;99.90;;;22.47;74.24;166471.44;4958497;29;20054;-84
2022/05/17 08:12:20;;;;;;;9.68;2.78;;;21.20;99.90;;;22.07;75.97;166365.16;4958377;28;20043;-84
2022/05/17 08:14:48;;;;;;;6.07;2.45;;;20.90;99.90;;;22.01;78.27;166349.03;4958891;29;20035;-83
2022/05/17 08:17:14;;;;;;;6.90;2.67;;;20.70;99.90;;;21.90;79.36;166320.75;4958834;29;20085;-84
2022/05/17 08:19:40;;;;;;;11.10;3.17;;;20.50;99.90;;;21.85;79.58;166305.94;4960594;28;20058;-84
2022/05/17 08:22:14;;;;;;;11.02;3.08;;;20.40;99.90;;;21.83;81.14;166300.56;4960452;28;20033;-83
2022/05/17 08:27:32;;;;;;;6.47;2.60;;;20.40;99.90;;;21.90;82.49;166320.75;4963221;29;20043;-86
2022/05/17 08:30:01;;;;;;;6.82;2.80;;;20.50;99.90;;;22.14;83.49;166384.00;4961558;28;20027;-83
2022/05/17 08:35:11;;;;;;;9.68;3.53;;;20.90;99.90;;;22.64;82.39;166517.16;4961441;29;20046;-85
2022/05/17 08:37:37;;;;;;;9.57;3.28;;;21.10;99.90;;;22.88;80.12;166580.47;4960577;29;20027;-86
2022/05/17 08:40:04;;;;;;;12.73;3.58;;;21.30;99.90;;;23.19;79.04;166662.53;4959651;28;20020;-84
2022/05/17 08:42:50;;;;;;;8.75;3.13;;;21.60;99.90;;;23.38;72.96;166713.69;4959203;28;20031;-86
2022/05/17 08:45:32;;;;;;;10.02;2.85;;;21.70;99.90;;;23.41;72.22;166723.16;4958968;29;20058;-85
2022/05/17 08:47:58;;;;;;;13.75;3.42;;;21.80;99.90;;;23.55;71.66;166760.88;4976083;28;20407;-81
2022/05/17 08:50:30;;;;;;;7.43;2.90;;;21.90;99.90;;;23.52;70.80;166752.78;4960278;29;20027;-84
2022/05/17 08:52:56;;;;;;;11.98;3.05;;;22.00;99.90;;;23.46;71.60;166735.28;4959884;28;20368;-87
2022/05/17 08:55:34;;;;;;;9.18;3.05;;;21.90;99.90;;;23.28;68.72;166686.81;4959295;29;20039;-87
2022/05/17 08:58:13;;;;;;;7.90;2.53;;;21.70;99.90;;;23.22;71.22;166671.97;4958128;29;20178;-87
2022/05/17 09:01:01;;;;;;;10.85;2.97;;;21.70;99.90;;;23.23;73.04;166674.66;4969281;29;20027;-84
2022/05/17 09:04:04;;;;;;;8.13;2.72;;;21.70;99.90;;;23.12;70.39;166645.03;4961975;28;20086;-83
2022/05/17 09:07:12;;;;;;;8.60;2.30;;;21.60;99.90;;;22.88;69.45;166581.81;4960129;29;20504;-84
2022/05/17 09:10:07;;;;;;;5.07;2.17;;;21.50;99.90;;;22.91;70.30;166589.88;4957863;29;20561;-89
2022/05/17 09:12:48;;;;;;;8.15;2.67;;;21.50;99.90;;;23.03;68.83;166620.81;4938696;29;20062;-86
2022/05/17 09:15:17;;;;;;;8.68;3.35;;;21.50;99.90;;;22.96;69.16;166603.31;4953990;28;20079;-87
2022/05/17 09:17:45;;;;;;;9.32;2.28;;;21.50;99.90;;;22.90;69.44;166585.81;4953886;28;20043;-85
2022/05/17 09:20:21;;;;;;;7.40;2.78;;;21.40;99.90;;;22.89;69.52;166583.19;4953719;28;20035;-89
2022/05/17 09:22:47;;;;;;;7.57;2.80;;;21.40;99.90;;;23.05;69.70;166626.25;4939106;29;20024;-88
2022/05/17 09:25:25;;;;;;;6.47;2.50;;;21.50;99.90;;;23.22;68.96;166670.59;4958030;28;20027;-88
2022/05/17 09:27:53;;;;;;;7.80;2.75;;;21.70;99.90;;;23.53;69.61;166755.50;4938131;29;20035;-87
2022/05/17 09:30:22;;;;;;;11.88;3.08;;;21.90;99.90;;;23.82;65.21;166832.22;4937559;28;20040;-88
2022/05/17 09:33:01;;;;;;;8.52;3.25;;;22.10;99.90;;;24.03;66.01;166888.75;4940857;29;20035;-86
2022/05/17 09:35:28;;;;;;;10.63;3.05;;;22.30;99.90;;;24.47;64.76;167005.94;4955768;28;20038;-88
2022/05/17 09:38:02;;;;;;;7.15;2.85;;;22.80;99.90;;;24.88;62.33;167113.78;4939729;28;20123;-84
2022/05/17 09:40:35;;;;;;;8.88;2.42;;;23.10;99.90;;;24.97;62.48;167139.38;4940204;28;20047;-85
2022/05/17 09:43:09;;;;;;;7.35;3.00;;;23.20;99.90;;;24.90;62.41;167119.16;4958038;28;20056;-88
2022/05/17 09:45:58;;;;;;;10.52;3.33;;;23.10;99.90;;;24.55;61.81;167027.53;4958317;28;20031;-87
2022/05/17 09:54:43;;;;;;;8.97;2.57;;;22.90;99.90;;;24.45;64.12;167000.56;4943382;29;20100;-86
2022/05/17 09:57:26;;;;;;;10.98;3.13;;;22.90;99.90;;;24.71;63.10;167069.28;4941527;29;20672;-86
2022/05/17 10:00:12;;;;;;;10.90;3.53;;;23.00;99.90;;;24.71;62.25;167069.28;4942245;28;20028;-85
2022/05/17 10:02:55;;;;;;;;;;;23.00;99.90;;;24.77;63.38;167084.06;4941996;28;20043;-84
2022/05/17 10:05:56;;;;;;;9.27;3.03;;;23.10;99.90;;;24.75;61.85;167080.06;4958994;28;19931;-85
2022/05/17 10:08:23;;;;;;;9.27;3.25;;;23.20;99.90;;;25.27;62.05;167217.53;4941558;28;20441;-87
2022/05/17 10:11:25;;;;;;;9.07;3.15;;;23.50;99.90;;;25.49;60.64;167276.78;4967250;28;20452;-87
2022/05/17 10:14:36;;;;;;;8.35;3.15;;;23.70;99.90;;;26.02;58.90;167418.31;4944441;29;20051;-85
2022/05/17 10:17:35;;;;;;;9.32;3.30;;;24.10;99.90;;;26.70;57.70;167600.38;4960667;29;20032;-86
2022/05/17 10:20:23;;;;;;;7.43;3.22;;;24.80;99.90;;;26.85;52.12;167640.88;4961217;29;20023;-86
2022/05/17 10:23:15;;;;;;;7.43;3.05;;;25.30;95.30;;;27.31;51.14;167762.25;4960457;28;20031;-87
2022/05/17 10:25:51;;;;;;;11.50;3.20;;;25.60;93.80;;;27.30;53.47;167760.88;4960283;28;20562;-85
2022/05/17 10:28:59;;;;;;;13.02;4.13;;;25.60;97.20;;;27.01;52.33;167684.03;4961725;29;20055;-85